sensor_id;sensor_type;location;lat;lon;timestamp;pressure;altitude;pressure_sealevel;temperature;humidity
19553;BME280;9420;50.876;7.012;2023-05-02T00:01:55;101310.81;;;44.62;21.78
19553;BME280;9420;50.876;7.012;2023-05-02T00:04:22;101302.00;;;48.38;20.21
19553;BME280;9420;50.876;7.012;2023-05-02T00:06:50;101299.22;;;48.58;19.49
19553;BME280;9420;50.876;7.012;2023-05-02T00:09:18;101302.78;;;46.22;21.35
19553;BME280;9420;50.876;7.012;2023-05-02T00:11:46;101303.38;;;48.60;19.37
19553;BME280;9420;50.876;7.012;2023-05-02T00:14:13;101296.22;;;49.77;19.18
19553;BME280;9420;50.876;7.012;2023-05-02T00:16:41;101302.03;;;48.33;19.38
19553;BME280;9420;50.876;7.012;2023-05-02T00:19:09;101310.72;;;46.04;21.34
19553;BME280;9420;50.876;7.012;2023-05-02T00:21:36;101294.56;;;47.31;20.13
19553;BME280;9420;50.876;7.012;2023-05-02T00:24:04;101309.66;;;46.47;21.25
19553;BME280;9420;50.876;7.012;2023-05-02T00:26:31;101308.81;;;45.56;20.94
19553;BME280;9420;50.876;7.012;2023-05-02T00:28:58;101304.94;;;47.41;20.30
19553;BME280;9420;50.876;7.012;2023-05-02T00:31:26;101316.59;;;45.81;21.60
19553;BME280;9420;50.876;7.012;2023-05-02T00:33:55;101316.13;;;46.99;20.49
19553;BME280;9420;50.876;7.012;2023-05-02T00:36:22;101317.06;;;48.02;19.89
19553;BME280;9420;50.876;7.012;2023-05-02T00:38:49;101321.28;;;47.17;20.28
19553;BME280;9420;50.876;7.012;2023-05-02T00:41:16;101324.91;;;46.02;20.41
19553;BME280;9420;50.876;7.012;2023-05-02T00:43:44;101324.03;;;47.07;20.43
19553;BME280;9420;50.876;7.012;2023-05-02T00:46:11;101332.81;;;45.62;20.75
19553;BME280;9420;50.876;7.012;2023-05-02T00:48:39;101320.06;;;47.60;20.24
19553;BME280;9420;50.876;7.012;2023-05-02T00:51:07;101326.44;;;49.21;19.00
19553;BME280;9420;50.876;7.012;2023-05-02T00:53:37;101336.31;;;47.06;20.04
19553;BME280;9420;50.876;7.012;2023-05-02T00:56:05;101338.03;;;46.38;20.29
19553;BME280;9420;50.876;7.012;2023-05-02T00:58:33;101334.63;;;47.05;20.25
19553;BME280;9420;50.876;7.012;2023-05-02T01:01:18;101346.53;;;45.95;21.22
19553;BME280;9420;50.876;7.012;2023-05-02T01:04:03;101338.88;;;47.18;20.02
19553;BME280;9420;50.876;7.012;2023-05-02T01:06:52;101347.28;;;45.21;21.27
19553;BME280;9420;50.876;7.012;2023-05-02T01:09:38;101351.38;;;46.31;20.61
19553;BME280;9420;50.876;7.012;2023-05-02T01:12:20;101353.88;;;47.06;20.18
19553;BME280;9420;50.876;7.012;2023-05-02T01:14:54;101363.91;;;46.66;20.95
19553;BME280;9420;50.876;7.012;2023-05-02T01:17:28;101370.84;;;42.53;22.02
19553;BME280;9420;50.876;7.012;2023-05-02T01:20:01;101357.59;;;46.49;20.33
19553;BME280;9420;50.876;7.012;2023-05-02T01:22:32;101371.63;;;44.42;21.58
19553;BME280;9420;50.876;7.012;2023-05-02T01:28:08;101372.41;;;44.09;21.50
19553;BME280;9420;50.876;7.012;2023-05-02T01:30:42;101373.22;;;45.91;20.78
19553;BME280;9420;50.876;7.012;2023-05-02T01:33:13;101378.19;;;43.28;21.29
19553;BME280;9420;50.876;7.012;2023-05-02T01:35:42;101376.00;;;43.42;22.34
19553;BME280;9420;50.876;7.012;2023-05-02T01:38:14;101381.63;;;44.76;21.79
19553;BME280;9420;50.876;7.012;2023-05-02T01:40:44;101388.81;;;43.31;22.62
19553;BME280;9420;50.876;7.012;2023-05-02T01:43:14;101395.03;;;42.46;21.74
19553;BME280;9420;50.876;7.012;2023-05-02T01:45:46;101394.75;;;44.64;21.86
19553;BME280;9420;50.876;7.012;2023-05-02T01:48:16;101383.06;;;45.77;20.55
19553;BME280;9420;50.876;7.012;2023-05-02T01:50:46;101399.66;;;44.12;21.48
19553;BME280;9420;50.876;7.012;2023-05-02T01:53:15;101394.78;;;46.96;20.95
19553;BME280;9420;50.876;7.012;2023-05-02T01:55:45;101400.16;;;42.31;22.71
19553;BME280;9420;50.876;7.012;2023-05-02T01:58:15;101391.63;;;43.71;22.60
19553;BME280;9420;50.876;7.012;2023-05-02T02:00:46;101396.75;;;43.39;23.09
19553;BME280;9420;50.876;7.012;2023-05-02T02:03:16;101407.03;;;43.04;22.57
19553;BME280;9420;50.876;7.012;2023-05-02T02:05:47;101397.97;;;44.89;21.94
19553;BME280;9420;50.876;7.012;2023-05-02T02:08:14;101421.81;;;40.39;23.71
19553;BME280;9420;50.876;7.012;2023-05-02T02:10:49;101410.75;;;43.45;23.15
19553;BME280;9420;50.876;7.012;2023-05-02T02:13:26;101423.63;;;42.81;22.10
19553;BME280;9420;50.876;7.012;2023-05-02T02:16:03;101427.69;;;42.79;22.94
19553;BME280;9420;50.876;7.012;2023-05-02T02:18:36;101428.94;;;43.92;22.37
19553;BME280;9420;50.876;7.012;2023-05-02T02:21:08;101436.91;;;43.02;22.76
19553;BME280;9420;50.876;7.012;2023-05-02T02:23:38;101443.41;;;42.14;22.58
19553;BME280;9420;50.876;7.012;2023-05-02T02:26:08;101428.59;;;46.41;21.12
19553;BME280;9420;50.876;7.012;2023-05-02T02:28:36;101432.09;;;46.90;20.68
19553;BME280;9420;50.876;7.012;2023-05-02T02:31:04;101444.00;;;43.21;22.78
19553;BME280;9420;50.876;7.012;2023-05-02T02:33:32;101433.66;;;44.64;22.20
19553;BME280;9420;50.876;7.012;2023-05-02T02:36:07;101440.25;;;45.25;20.78
19553;BME280;9420;50.876;7.012;2023-05-02T02:38:45;101445.44;;;44.71;21.57
19553;BME280;9420;50.876;7.012;2023-05-02T02:41:20;101440.56;;;47.42;20.00
19553;BME280;9420;50.876;7.012;2023-05-02T02:43:59;101445.88;;;43.79;21.97
19553;BME280;9420;50.876;7.012;2023-05-02T02:46:43;101449.94;;;47.77;19.63
19553;BME280;9420;50.876;7.012;2023-05-02T02:49:26;101459.41;;;45.43;22.19
19553;BME280;9420;50.876;7.012;2023-05-02T02:52:05;101460.03;;;44.45;22.08
19553;BME280;9420;50.876;7.012;2023-05-02T02:54:44;101461.66;;;43.90;22.30
19553;BME280;9420;50.876;7.012;2023-05-02T02:57:17;101467.19;;;42.33;23.16
19553;BME280;9420;50.876;7.012;2023-05-02T02:59:56;101469.63;;;47.09;20.63
19553;BME280;9420;50.876;7.012;2023-05-02T03:02:31;101460.13;;;45.17;20.26
19553;BME280;9420;50.876;7.012;2023-05-02T03:05:00;101465.41;;;45.35;21.37
19553;BME280;9420;50.876;7.012;2023-05-02T03:07:29;101466.03;;;43.63;23.65
19553;BME280;9420;50.876;7.012;2023-05-02T03:09:56;101479.78;;;42.88;22.85
19553;BME280;9420;50.876;7.012;2023-05-02T03:12:23;101469.56;;;43.35;22.19
19553;BME280;9420;50.876;7.012;2023-05-02T03:14:50;101479.03;;;44.25;21.73
19553;BME280;9420;50.876;7.012;2023-05-02T03:17:17;101482.28;;;44.78;22.25
19553;BME280;9420;50.876;7.012;2023-05-02T03:19:46;101480.97;;;44.69;20.99
19553;BME280;9420;50.876;7.012;2023-05-02T03:22:13;101491.00;;;46.98;20.29
19553;BME280;9420;50.876;7.012;2023-05-02T03:24:40;101488.38;;;45.63;21.13
19553;BME280;9420;50.876;7.012;2023-05-02T03:27:07;101490.78;;;43.06;22.29
19553;BME280;9420;50.876;7.012;2023-05-02T03:29:34;101484.38;;;47.04;20.19
19553;BME280;9420;50.876;7.012;2023-05-02T03:32:01;101479.00;;;44.81;21.90
19553;BME280;9420;50.876;7.012;2023-05-02T03:34:28;101470.88;;;46.11;21.05
19553;BME280;9420;50.876;7.012;2023-05-02T03:36:57;101489.72;;;45.61;21.01
19553;BME280;9420;50.876;7.012;2023-05-02T03:39:24;101482.69;;;45.75;21.17
19553;BME280;9420;50.876;7.012;2023-05-02T03:41:51;101483.66;;;47.24;19.63
19553;BME280;9420;50.876;7.012;2023-05-02T03:44:18;101484.84;;;45.73;20.86
19553;BME280;9420;50.876;7.012;2023-05-02T03:46:46;101486.97;;;48.10;19.67
19553;BME280;9420;50.876;7.012;2023-05-02T03:49:14;101480.16;;;47.96;19.40
19553;BME280;9420;50.876;7.012;2023-05-02T03:51:41;101487.78;;;46.53;20.28
19553;BME280;9420;50.876;7.012;2023-05-02T03:54:09;101488.28;;;46.23;20.62
19553;BME280;9420;50.876;7.012;2023-05-02T03:56:36;101493.63;;;47.10;19.91
19553;BME280;9420;50.876;7.012;2023-05-02T03:59:04;101505.69;;;47.62;20.34
19553;BME280;9420;50.876;7.012;2023-05-02T04:01:32;101487.63;;;48.72;19.47
19553;BME280;9420;50.876;7.012;2023-05-02T04:03:59;101492.66;;;48.60;19.09
19553;BME280;9420;50.876;7.012;2023-05-02T04:06:26;101493.75;;;48.59;19.29
19553;BME280;9420;50.876;7.012;2023-05-02T04:08:53;101490.19;;;47.92;19.64
19553;BME280;9420;50.876;7.012;2023-05-02T04:11:22;101506.06;;;47.34;19.62
19553;BME280;9420;50.876;7.012;2023-05-02T04:13:51;101499.00;;;46.31;20.18
19553;BME280;9420;50.876;7.012;2023-05-02T04:16:18;101511.13;;;46.74;20.75
19553;BME280;9420;50.876;7.012;2023-05-02T04:18:46;101506.69;;;46.73;20.39
19553;BME280;9420;50.876;7.012;2023-05-02T04:21:13;101505.72;;;46.14;21.22
19553;BME280;9420;50.876;7.012;2023-05-02T04:23:40;101506.22;;;47.18;20.31
19553;BME280;9420;50.876;7.012;2023-05-02T04:26:07;101513.59;;;45.95;21.12
19553;BME280;9420;50.876;7.012;2023-05-02T04:28:35;101514.47;;;45.79;20.48
19553;BME280;9420;50.876;7.012;2023-05-02T04:31:03;101517.50;;;46.21;21.00
19553;BME280;9420;50.876;7.012;2023-05-02T04:33:30;101528.03;;;45.37;21.59
19553;BME280;9420;50.876;7.012;2023-05-02T04:35:57;101534.56;;;45.15;21.71
19553;BME280;9420;50.876;7.012;2023-05-02T04:38:24;101526.84;;;46.58;21.16
19553;BME280;9420;50.876;7.012;2023-05-02T04:40:52;101533.09;;;46.65;20.69
19553;BME280;9420;50.876;7.012;2023-05-02T04:43:19;101536.09;;;46.15;20.94
19553;BME280;9420;50.876;7.012;2023-05-02T04:45:48;101540.63;;;46.70;21.06
19553;BME280;9420;50.876;7.012;2023-05-02T04:48:15;101549.50;;;45.58;21.59
19553;BME280;9420;50.876;7.012;2023-05-02T04:50:44;101561.69;;;47.14;20.47
19553;BME280;9420;50.876;7.012;2023-05-02T04:53:12;101552.06;;;48.25;19.93
19553;BME280;9420;50.876;7.012;2023-05-02T04:55:39;101565.78;;;45.17;21.14
19553;BME280;9420;50.876;7.012;2023-05-02T04:58:07;101564.41;;;45.03;21.55
19553;BME280;9420;50.876;7.012;2023-05-02T05:00:34;101563.56;;;44.85;21.68
19553;BME280;9420;50.876;7.012;2023-05-02T05:03:03;101580.13;;;43.31;22.33
19553;BME280;9420;50.876;7.012;2023-05-02T05:05:31;101575.91;;;44.50;22.47
19553;BME280;9420;50.876;7.012;2023-05-02T05:07:58;101575.81;;;44.33;22.42
19553;BME280;9420;50.876;7.012;2023-05-02T05:10:25;101579.25;;;44.12;23.05
19553;BME280;9420;50.876;7.012;2023-05-02T05:12:52;101574.38;;;45.32;21.89
19553;BME280;9420;50.876;7.012;2023-05-02T05:15:20;101570.88;;;46.34;21.11
19553;BME280;9420;50.876;7.012;2023-05-02T05:17:48;101575.41;;;45.26;21.54
19553;BME280;9420;50.876;7.012;2023-05-02T05:20:17;101577.09;;;45.60;21.39
19553;BME280;9420;50.876;7.012;2023-05-02T05:22:44;101581.81;;;46.89;20.66
19553;BME280;9420;50.876;7.012;2023-05-02T05:25:11;101581.41;;;47.34;20.84
19553;BME280;9420;50.876;7.012;2023-05-02T05:27:38;101585.94;;;47.82;20.43
19553;BME280;9420;50.876;7.012;2023-05-02T05:30:07;101600.66;;;43.77;22.29
19553;BME280;9420;50.876;7.012;2023-05-02T05:32:34;101588.56;;;44.85;22.42
19553;BME280;9420;50.876;7.012;2023-05-02T05:35:02;101594.22;;;47.03;20.94
19553;BME280;9420;50.876;7.012;2023-05-02T05:37:31;101592.50;;;46.49;21.50
19553;BME280;9420;50.876;7.012;2023-05-02T05:39:59;101597.59;;;47.05;20.54
19553;BME280;9420;50.876;7.012;2023-05-02T05:42:28;101613.25;;;44.70;22.54
19553;BME280;9420;50.876;7.012;2023-05-02T05:44:56;101618.13;;;43.89;22.35
19553;BME280;9420;50.876;7.012;2023-05-02T05:47:23;101621.50;;;43.56;22.73
19553;BME280;9420;50.876;7.012;2023-05-02T05:49:52;101630.81;;;42.61;23.28
19553;BME280;9420;50.876;7.012;2023-05-02T05:52:19;101623.50;;;45.10;21.27
19553;BME280;9420;50.876;7.012;2023-05-02T05:54:48;101626.97;;;45.17;22.13
19553;BME280;9420;50.876;7.012;2023-05-02T05:57:15;101629.72;;;47.76;20.18
19553;BME280;9420;50.876;7.012;2023-05-02T05:59:42;101638.94;;;47.40;20.49
19553;BME280;9420;50.876;7.012;2023-05-02T06:02:09;101645.16;;;46.07;21.25
19553;BME280;9420;50.876;7.012;2023-05-02T06:04:36;101641.66;;;44.33;22.11
19553;BME280;9420;50.876;7.012;2023-05-02T06:07:04;101648.66;;;46.19;21.01
19553;BME280;9420;50.876;7.012;2023-05-02T06:09:31;101645.16;;;46.07;21.49
19553;BME280;9420;50.876;7.012;2023-05-02T06:12:00;101653.34;;;43.54;22.48
19553;BME280;9420;50.876;7.012;2023-05-02T06:14:28;101653.63;;;44.10;22.17
19553;BME280;9420;50.876;7.012;2023-05-02T06:16:58;101648.00;;;45.13;21.93
19553;BME280;9420;50.876;7.012;2023-05-02T06:19:25;101655.22;;;43.71;22.44
19553;BME280;9420;50.876;7.012;2023-05-02T06:21:52;101644.34;;;44.67;21.95
19553;BME280;9420;50.876;7.012;2023-05-02T06:24:19;101657.22;;;43.53;22.25
19553;BME280;9420;50.876;7.012;2023-05-02T06:26:46;101657.38;;;46.88;20.48
19553;BME280;9420;50.876;7.012;2023-05-02T06:29:14;101661.72;;;48.01;19.82
19553;BME280;9420;50.876;7.012;2023-05-02T06:31:41;101672.16;;;44.56;21.65
19553;BME280;9420;50.876;7.012;2023-05-02T06:34:08;101668.78;;;46.05;21.79
19553;BME280;9420;50.876;7.012;2023-05-02T06:36:35;101672.94;;;44.28;22.72
19553;BME280;9420;50.876;7.012;2023-05-02T06:39:02;101692.72;;;44.43;22.27
19553;BME280;9420;50.876;7.012;2023-05-02T06:41:29;101694.84;;;42.71;23.49
19553;BME280;9420;50.876;7.012;2023-05-02T06:43:58;101694.09;;;43.41;23.46
19553;BME280;9420;50.876;7.012;2023-05-02T06:46:29;101691.31;;;44.80;22.12
19553;BME280;9420;50.876;7.012;2023-05-02T06:48:56;101688.63;;;46.90;21.39
19553;BME280;9420;50.876;7.012;2023-05-02T06:51:23;101701.94;;;45.12;22.07
19553;BME280;9420;50.876;7.012;2023-05-02T06:53:50;101709.47;;;42.96;24.33
19553;BME280;9420;50.876;7.012;2023-05-02T06:56:18;101718.56;;;44.44;23.12
19553;BME280;9420;50.876;7.012;2023-05-02T06:58:45;101706.00;;;45.65;22.92
19553;BME280;9420;50.876;7.012;2023-05-02T07:01:12;101726.50;;;43.71;23.62
19553;BME280;9420;50.876;7.012;2023-05-02T07:03:40;101718.78;;;43.73;23.53
19553;BME280;9420;50.876;7.012;2023-05-02T07:06:07;101735.72;;;44.29;23.81
19553;BME280;9420;50.876;7.012;2023-05-02T07:08:36;101734.22;;;44.84;22.30
19553;BME280;9420;50.876;7.012;2023-05-02T07:11:03;101725.34;;;45.44;22.44
19553;BME280;9420;50.876;7.012;2023-05-02T07:13:30;101728.03;;;45.11;22.69
19553;BME280;9420;50.876;7.012;2023-05-02T07:15:58;101738.44;;;43.83;23.71
19553;BME280;9420;50.876;7.012;2023-05-02T07:18:25;101731.91;;;45.66;22.16
19553;BME280;9420;50.876;7.012;2023-05-02T07:20:53;101730.94;;;48.82;21.27
19553;BME280;9420;50.876;7.012;2023-05-02T07:23:21;101735.44;;;48.88;20.53
19553;BME280;9420;50.876;7.012;2023-05-02T07:25:48;101746.91;;;45.65;21.57
19553;BME280;9420;50.876;7.012;2023-05-02T07:28:15;101745.31;;;46.57;21.75
19553;BME280;9420;50.876;7.012;2023-05-02T07:30:42;101750.31;;;46.55;21.40
19553;BME280;9420;50.876;7.012;2023-05-02T07:33:09;101745.44;;;47.32;20.87
19553;BME280;9420;50.876;7.012;2023-05-02T07:35:36;101764.00;;;41.92;23.34
19553;BME280;9420;50.876;7.012;2023-05-02T07:38:04;101765.72;;;44.90;22.88
19553;BME280;9420;50.876;7.012;2023-05-02T07:40:31;101770.13;;;44.40;23.06
19553;BME280;9420;50.876;7.012;2023-05-02T07:43:00;101754.25;;;47.46;20.91
19553;BME280;9420;50.876;7.012;2023-05-02T07:45:28;101764.66;;;49.22;19.92
19553;BME280;9420;50.876;7.012;2023-05-02T07:47:55;101775.56;;;42.32;23.55
19553;BME280;9420;50.876;7.012;2023-05-02T07:50:22;101772.00;;;44.97;22.50
19553;BME280;9420;50.876;7.012;2023-05-02T07:52:50;101769.94;;;49.14;20.24
19553;BME280;9420;50.876;7.012;2023-05-02T07:55:19;101765.34;;;48.88;20.60
19553;BME280;9420;50.876;7.012;2023-05-02T07:57:46;101767.16;;;47.83;20.03
19553;BME280;9420;50.876;7.012;2023-05-02T08:00:15;101773.72;;;51.53;18.82
19553;BME280;9420;50.876;7.012;2023-05-02T08:02:42;101778.16;;;50.31;19.18
19553;BME280;9420;50.876;7.012;2023-05-02T08:05:09;101779.41;;;49.13;19.53
19553;BME280;9420;50.876;7.012;2023-05-02T08:07:37;101787.34;;;48.69;19.52
19553;BME280;9420;50.876;7.012;2023-05-02T08:10:05;101782.84;;;49.40;19.21
19553;BME280;9420;50.876;7.012;2023-05-02T08:12:39;101783.78;;;49.71;18.57
19553;BME280;9420;50.876;7.012;2023-05-02T08:15:10;101791.13;;;48.48;18.81
19553;BME280;9420;50.876;7.012;2023-05-02T08:17:38;101803.34;;;49.56;18.29
19553;BME280;9420;50.876;7.012;2023-05-02T08:20:07;101793.47;;;49.18;18.72
19553;BME280;9420;50.876;7.012;2023-05-02T08:22:34;101798.88;;;49.80;18.72
19553;BME280;9420;50.876;7.012;2023-05-02T08:25:01;101800.00;;;50.54;18.75
19553;BME280;9420;50.876;7.012;2023-05-02T08:27:28;101814.56;;;49.61;18.56
19553;BME280;9420;50.876;7.012;2023-05-02T08:29:56;101807.88;;;50.02;18.64
19553;BME280;9420;50.876;7.012;2023-05-02T08:32:23;101811.19;;;49.74;18.06
19553;BME280;9420;50.876;7.012;2023-05-02T08:34:54;101814.94;;;49.07;18.57
19553;BME280;9420;50.876;7.012;2023-05-02T08:37:21;101812.59;;;48.84;19.23
19553;BME280;9420;50.876;7.012;2023-05-02T08:39:48;101811.84;;;47.57;19.70
19553;BME280;9420;50.876;7.012;2023-05-02T08:42:15;101831.47;;;45.36;21.07
19553;BME280;9420;50.876;7.012;2023-05-02T08:44:45;101804.47;;;50.55;18.44
19553;BME280;9420;50.876;7.012;2023-05-02T08:47:15;101823.53;;;48.44;18.47
19553;BME280;9420;50.876;7.012;2023-05-02T08:49:45;101831.38;;;49.61;18.50
19553;BME280;9420;50.876;7.012;2023-05-02T08:52:14;101818.78;;;49.68;18.11
19553;BME280;9420;50.876;7.012;2023-05-02T08:54:43;101816.78;;;50.59;17.85
19553;BME280;9420;50.876;7.012;2023-05-02T08:57:11;101820.16;;;50.36;17.66
19553;BME280;9420;50.876;7.012;2023-05-02T08:59:38;101829.31;;;47.47;18.27
19553;BME280;9420;50.876;7.012;2023-05-02T09:02:15;101822.25;;;47.66;19.31
19553;BME280;9420;50.876;7.012;2023-05-02T09:04:53;101835.63;;;49.01;18.14
19553;BME280;9420;50.876;7.012;2023-05-02T09:07:20;101832.59;;;47.93;18.50
19553;BME280;9420;50.876;7.012;2023-05-02T09:09:48;101834.09;;;49.41;18.42
19553;BME280;9420;50.876;7.012;2023-05-02T09:12:15;101840.84;;;48.41;18.58
19553;BME280;9420;50.876;7.012;2023-05-02T09:14:42;101842.19;;;48.38;18.57
19553;BME280;9420;50.876;7.012;2023-05-02T09:17:10;101851.84;;;49.04;18.05
19553;BME280;9420;50.876;7.012;2023-05-02T09:19:37;101850.78;;;49.10;18.33
19553;BME280;9420;50.876;7.012;2023-05-02T09:22:05;101855.63;;;49.35;17.42
19553;BME280;9420;50.876;7.012;2023-05-02T09:24:33;101860.19;;;46.42;18.44
19553;BME280;9420;50.876;7.012;2023-05-02T09:27:02;101871.59;;;43.41;20.77
19553;BME280;9420;50.876;7.012;2023-05-02T09:29:30;101877.56;;;43.57;20.23
19553;BME280;9420;50.876;7.012;2023-05-02T09:32:00;101866.84;;;47.83;18.49
19553;BME280;9420;50.876;7.012;2023-05-02T09:34:28;101891.59;;;43.07;20.96
19553;BME280;9420;50.876;7.012;2023-05-02T09:36:56;101880.53;;;46.60;19.25
19553;BME280;9420;50.876;7.012;2023-05-02T09:39:26;101885.44;;;48.31;17.95
19553;BME280;9420;50.876;7.012;2023-05-02T09:41:55;101884.44;;;49.30;17.40
19553;BME280;9420;50.876;7.012;2023-05-02T09:44:24;101889.47;;;46.62;18.64
19553;BME280;9420;50.876;7.012;2023-05-02T09:46:54;101881.84;;;50.66;16.52
19553;BME280;9420;50.876;7.012;2023-05-02T09:49:39;101900.50;;;48.93;17.25
19553;BME280;9420;50.876;7.012;2023-05-02T09:52:11;101894.31;;;48.23;17.74
19553;BME280;9420;50.876;7.012;2023-05-02T09:54:40;101906.72;;;49.10;17.12
19553;BME280;9420;50.876;7.012;2023-05-02T09:57:07;101917.00;;;44.48;19.47
19553;BME280;9420;50.876;7.012;2023-05-02T09:59:35;101911.66;;;48.20;17.65
19553;BME280;9420;50.876;7.012;2023-05-02T10:02:05;101912.25;;;49.00;17.42
19553;BME280;9420;50.876;7.012;2023-05-02T10:04:35;101911.63;;;48.88;17.50
19553;BME280;9420;50.876;7.012;2023-05-02T10:07:02;101917.63;;;49.74;16.74
19553;BME280;9420;50.876;7.012;2023-05-02T10:09:34;101916.50;;;51.21;16.28
19553;BME280;9420;50.876;7.012;2023-05-02T10:12:03;101923.19;;;49.54;17.24
19553;BME280;9420;50.876;7.012;2023-05-02T10:14:38;101916.56;;;51.01;16.14
19553;BME280;9420;50.876;7.012;2023-05-02T10:17:14;101919.44;;;50.55;16.61
19553;BME280;9420;50.876;7.012;2023-05-02T10:19:52;101924.66;;;52.20;15.91
19553;BME280;9420;50.876;7.012;2023-05-02T10:22:21;101926.16;;;50.24;16.65
19553;BME280;9420;50.876;7.012;2023-05-02T10:24:51;101930.59;;;48.81;16.93
19553;BME280;9420;50.876;7.012;2023-05-02T10:27:21;101926.38;;;49.82;16.89
19553;BME280;9420;50.876;7.012;2023-05-02T10:29:51;101934.81;;;50.13;16.68
19553;BME280;9420;50.876;7.012;2023-05-02T10:32:19;101927.97;;;47.58;18.21
19553;BME280;9420;50.876;7.012;2023-05-02T10:34:50;101941.56;;;49.34;17.32
19553;BME280;9420;50.876;7.012;2023-05-02T10:37:20;101937.56;;;45.79;17.18
19553;BME280;9420;50.876;7.012;2023-05-02T10:39:47;101939.66;;;44.98;19.19
19553;BME280;9420;50.876;7.012;2023-05-02T10:42:15;101931.59;;;49.59;17.20
19553;BME280;9420;50.876;7.012;2023-05-02T10:44:44;101935.44;;;48.01;18.23
19553;BME280;9420;50.876;7.012;2023-05-02T10:47:20;101928.28;;;48.73;17.45
19553;BME280;9420;50.876;7.012;2023-05-02T10:49:53;101937.63;;;50.02;16.41
19553;BME280;9420;50.876;7.012;2023-05-02T10:52:29;101922.53;;;53.40;15.35
19553;BME280;9420;50.876;7.012;2023-05-02T10:55:14;101940.44;;;45.84;18.10
19553;BME280;9420;50.876;7.012;2023-05-02T10:58:19;101926.31;;;51.23;15.79
19553;BME280;9420;50.876;7.012;2023-05-02T11:00:48;101926.13;;;50.84;15.63
19553;BME280;9420;50.876;7.012;2023-05-02T11:03:53;101931.72;;;50.09;16.16
19553;BME280;9420;50.876;7.012;2023-05-02T11:06:21;101936.53;;;50.29;15.87
19553;BME280;9420;50.876;7.012;2023-05-02T11:08:48;101921.03;;;51.07;15.82
19553;BME280;9420;50.876;7.012;2023-05-02T11:11:39;101939.44;;;49.62;16.02
19553;BME280;9420;50.876;7.012;2023-05-02T11:14:08;101934.06;;;48.98;17.22
19553;BME280;9420;50.876;7.012;2023-05-02T11:17:10;101928.56;;;51.21;15.46
19553;BME280;9420;50.876;7.012;2023-05-02T11:20:27;101928.94;;;50.34;15.61
19553;BME280;9420;50.876;7.012;2023-05-02T11:23:22;101929.47;;;50.76;15.74
19553;BME280;9420;50.876;7.012;2023-05-02T11:25:54;101949.41;;;50.20;16.25
19553;BME280;9420;50.876;7.012;2023-05-02T11:28:43;101932.97;;;49.04;16.12
19553;BME280;9420;50.876;7.012;2023-05-02T11:34:24;101939.81;;;49.18;16.30
19553;BME280;9420;50.876;7.012;2023-05-02T11:36:52;101939.34;;;46.13;17.93
19553;BME280;9420;50.876;7.012;2023-05-02T11:39:19;101935.91;;;50.01;16.37
19553;BME280;9420;50.876;7.012;2023-05-02T11:41:47;101939.41;;;49.57;16.29
19553;BME280;9420;50.876;7.012;2023-05-02T11:44:16;101940.06;;;51.25;14.84
19553;BME280;9420;50.876;7.012;2023-05-02T11:46:43;101935.06;;;51.07;15.58
19553;BME280;9420;50.876;7.012;2023-05-02T11:49:12;101953.38;;;48.05;15.94
19553;BME280;9420;50.876;7.012;2023-05-02T11:51:40;101953.09;;;45.63;18.24
19553;BME280;9420;50.876;7.012;2023-05-02T11:54:07;101951.38;;;47.73;17.65
19553;BME280;9420;50.876;7.012;2023-05-02T11:56:35;101960.00;;;46.95;17.02
19553;BME280;9420;50.876;7.012;2023-05-02T11:59:03;101953.00;;;47.96;16.39
19553;BME280;9420;50.876;7.012;2023-05-02T12:01:32;101960.66;;;48.32;16.23
19553;BME280;9420;50.876;7.012;2023-05-02T12:04:03;101958.91;;;44.46;18.31
19553;BME280;9420;50.876;7.012;2023-05-02T12:06:32;101956.94;;;46.97;17.38
19553;BME280;9420;50.876;7.012;2023-05-02T12:09:12;101962.19;;;44.66;18.58
19553;BME280;9420;50.876;7.012;2023-05-02T12:11:40;101968.97;;;45.40;17.74
19553;BME280;9420;50.876;7.012;2023-05-02T12:14:08;101960.88;;;45.50;18.23
19553;BME280;9420;50.876;7.012;2023-05-02T12:16:35;101949.53;;;47.84;17.41
19553;BME280;9420;50.876;7.012;2023-05-02T12:19:03;101972.09;;;48.62;17.09
19553;BME280;9420;50.876;7.012;2023-05-02T12:21:30;101971.94;;;45.73;17.60
19553;BME280;9420;50.876;7.012;2023-05-02T12:24:00;101964.75;;;49.87;15.75
19553;BME280;9420;50.876;7.012;2023-05-02T12:26:29;101947.38;;;51.26;15.14
19553;BME280;9420;50.876;7.012;2023-05-02T12:28:58;101959.56;;;51.60;15.18
19553;BME280;9420;50.876;7.012;2023-05-02T12:31:27;101965.03;;;49.28;15.23
19553;BME280;9420;50.876;7.012;2023-05-02T12:33:57;101959.66;;;51.40;14.71
19553;BME280;9420;50.876;7.012;2023-05-02T12:36:25;101962.03;;;50.47;15.18
19553;BME280;9420;50.876;7.012;2023-05-02T12:38:55;101977.50;;;44.46;17.18
19553;BME280;9420;50.876;7.012;2023-05-02T12:41:38;101972.28;;;46.78;16.94
19553;BME280;9420;50.876;7.012;2023-05-02T12:44:08;101982.53;;;46.27;16.45
19553;BME280;9420;50.876;7.012;2023-05-02T12:46:35;101977.00;;;43.78;17.63
19553;BME280;9420;50.876;7.012;2023-05-02T12:49:04;101983.16;;;45.90;17.31
19553;BME280;9420;50.876;7.012;2023-05-02T12:51:33;101989.63;;;45.67;17.02
19553;BME280;9420;50.876;7.012;2023-05-02T12:54:01;101981.00;;;48.54;15.50
19553;BME280;9420;50.876;7.012;2023-05-02T12:56:28;101995.53;;;46.67;16.83
19553;BME280;9420;50.876;7.012;2023-05-02T12:58:58;101986.59;;;49.85;14.95
19553;BME280;9420;50.876;7.012;2023-05-02T13:01:30;101987.69;;;49.22;14.98
19553;BME280;9420;50.876;7.012;2023-05-02T13:03:58;101995.66;;;50.47;14.49
19553;BME280;9420;50.876;7.012;2023-05-02T13:06:25;101990.50;;;53.34;13.74
19553;BME280;9420;50.876;7.012;2023-05-02T13:08:52;101983.81;;;52.39;14.00
19553;BME280;9420;50.876;7.012;2023-05-02T13:11:19;101988.72;;;48.16;15.68
19553;BME280;9420;50.876;7.012;2023-05-02T13:13:46;101990.38;;;48.17;15.66
19553;BME280;9420;50.876;7.012;2023-05-02T13:16:14;101981.50;;;48.78;15.16
19553;BME280;9420;50.876;7.012;2023-05-02T13:18:41;101983.53;;;46.66;16.31
19553;BME280;9420;50.876;7.012;2023-05-02T13:21:08;101996.19;;;47.07;15.86